Time;durP1;ratioP1;P1;durP2;ratioP2;P2;SDS_P1;SDS_P2;PMS_P1;PMS_P2;Temp;Humidity;BMP_temperature;BMP_pressure;BME280_temperature;BME280_humidity;BME280_pressure;Samples;Min_cycle;Max_cycle;Signal;HPM_P1;HPM_P2
2022/10/09 00:01:16;;;;;;;5.33;3.97;;;12.50;99.90;;;;;;5112926;28;20224;-67
2022/10/09 00:03:44;;;;;;;8.07;4.43;;;12.60;99.90;;;;;;5112347;28;20207;-68
2022/10/09 00:06:14;;;;;;;8.40;4.43;;;12.60;99.90;;;;;;5112206;28;20214;-68
2022/10/09 00:08:42;;;;;;;6.70;4.20;;;12.70;99.90;;;;;;5111357;28;20208;-68
2022/10/09 00:11:14;;;;;;;6.47;4.10;;;12.70;99.90;;;;;;5112565;28;20234;-68
2022/10/09 00:13:43;;;;;;;5.33;3.70;;;12.60;99.90;;;;;;5110775;28;20200;-68
2022/10/09 00:16:12;;;;;;;8.97;4.13;;;12.60;99.90;;;;;;5111448;28;20325;-67
2022/10/09 00:18:40;;;;;;;6.10;3.70;;;12.70;99.90;;;;;;5112065;28;20204;-67
2022/10/09 00:21:17;;;;;;;5.87;4.23;;;12.70;99.90;;;;;;5098406;28;20232;-67
2022/10/09 00:23:43;;;;;;;4.77;2.93;;;12.70;99.90;;;;;;5111007;28;20707;-68
2022/10/09 00:26:11;;;;;;;9.13;3.70;;;12.70;99.90;;;;;;5110480;28;20239;-68
2022/10/09 00:28:38;;;;;;;4.73;3.50;;;12.60;99.90;;;;;;5111487;28;20618;-68
2022/10/09 00:31:07;;;;;;;6.57;3.87;;;12.60;99.90;;;;;;5111988;28;20207;-68
2022/10/09 00:33:35;;;;;;;6.70;3.60;;;12.60;99.90;;;;;;5111341;28;20204;-68
2022/10/09 00:36:03;;;;;;;4.53;3.43;;;12.60;99.90;;;;;;5111728;28;20204;-68
2022/10/09 00:38:30;;;;;;;5.10;3.77;;;12.60;99.90;;;;;;5111545;28;20204;-68
2022/10/09 00:40:57;;;;;;;10.33;3.93;;;12.60;99.90;;;;;;5110679;28;20211;-68
2022/10/09 00:43:39;;;;;;;4.37;3.30;;;12.60;99.90;;;;;;5109046;28;20605;-68
2022/10/09 00:46:16;;;;;;;4.40;3.23;;;12.60;99.90;;;;;;5110876;28;20211;-68
2022/10/09 00:48:43;;;;;;;6.10;3.50;;;12.50;99.90;;;;;;5109752;28;20404;-68
2022/10/09 00:51:10;;;;;;;5.57;3.50;;;12.50;99.90;;;;;;5111942;28;20641;-68
2022/10/09 00:53:37;;;;;;;6.00;3.77;;;12.50;99.90;;;;;;5111265;28;20203;-69
2022/10/09 00:56:04;;;;;;;7.57;3.80;;;12.40;99.90;;;;;;5108900;28;20212;-69
2022/10/09 00:58:30;;;;;;;5.80;3.77;;;12.40;99.90;;;;;;5106133;28;20282;-68
2022/10/09 01:00:57;;;;;;;6.53;3.50;;;12.30;99.90;;;;;;5111756;28;20234;-68
2022/10/09 01:03:25;;;;;;;5.00;2.97;;;12.30;99.90;;;;;;5110492;28;20215;-68
2022/10/09 01:06:02;;;;;;;7.47;3.60;;;12.30;99.90;;;;;;5111345;28;20448;-69
2022/10/09 01:08:35;;;;;;;7.37;3.53;;;12.20;99.90;;;;;;5110259;28;20191;-69
2022/10/09 01:11:07;;;;;;;5.63;2.93;;;12.30;99.90;;;;;;5110515;28;20230;-67
2022/10/09 01:13:42;;;;;;;5.60;3.90;;;12.20;99.90;;;;;;5109622;28;20206;-69
2022/10/09 01:16:15;;;;;;;5.83;3.70;;;12.20;99.90;;;;;;5107128;28;20210;-67
2022/10/09 01:18:48;;;;;;;6.20;3.60;;;12.20;99.90;;;;;;5110080;28;20196;-68
2022/10/09 01:21:19;;;;;;;7.43;4.17;;;12.20;99.90;;;;;;5110077;28;20218;-67
2022/10/09 01:24:04;;;;;;;5.87;3.73;;;12.10;99.90;;;;;;5111690;28;20223;-67
2022/10/09 01:26:53;;;;;;;4.83;3.73;;;12.10;99.90;;;;;;5099606;28;20239;-68
2022/10/09 01:29:23;;;;;;;5.20;3.70;;;12.10;99.90;;;;;;5109412;28;20200;-67
2022/10/09 01:31:52;;;;;;;5.40;4.17;;;12.10;99.90;;;;;;5111261;28;20215;-67
2022/10/09 01:34:20;;;;;;;7.83;4.37;;;12.10;99.90;;;;;;5110667;28;20738;-67
2022/10/09 01:36:47;;;;;;;7.83;4.40;;;12.10;99.90;;;;;;5109973;28;20207;-67
2022/10/09 01:39:18;;;;;;;5.67;3.77;;;12.00;99.90;;;;;;5110983;28;20211;-67
2022/10/09 01:41:46;;;;;;;6.87;4.10;;;12.00;99.90;;;;;;5110906;28;20227;-68
2022/10/09 01:44:19;;;;;;;6.40;4.13;;;12.00;99.90;;;;;;5107590;28;20207;-67
2022/10/09 01:46:46;;;;;;;4.90;3.80;;;12.00;99.90;;;;;;5110084;28;20199;-67
2022/10/09 01:49:23;;;;;;;6.67;3.83;;;12.00;99.90;;;;;;5111411;28;20203;-68
2022/10/09 01:51:56;;;;;;;6.43;4.07;;;12.00;99.90;;;;;;5110794;28;20675;-67
2022/10/09 01:54:39;;;;;;;6.90;3.90;;;12.00;99.90;;;;;;5110360;28;20563;-67
2022/10/09 01:57:08;;;;;;;5.87;4.03;;;12.00;99.90;;;;;;5110359;28;20200;-67
2022/10/09 01:59:39;;;;;;;5.53;4.33;;;11.90;99.90;;;;;;5110706;28;20540;-67
2022/10/09 02:02:07;;;;;;;4.40;3.43;;;11.90;99.90;;;;;;5109154;28;20261;-67
2022/10/09 02:04:36;;;;;;;5.37;3.87;;;11.80;99.90;;;;;;5109844;28;20284;-66
2022/10/09 02:07:04;;;;;;;6.10;4.10;;;11.80;99.90;;;;;;5095777;28;20208;-67
2022/10/09 02:09:32;;;;;;;5.53;3.83;;;11.70;99.90;;;;;;5111439;28;20331;-67
2022/10/09 02:12:04;;;;;;;7.80;4.13;;;11.70;99.90;;;;;;5110617;28;20219;-67
2022/10/09 02:14:31;;;;;;;5.50;3.67;;;11.60;99.90;;;;;;5106175;28;20200;-69
2022/10/09 02:17:04;;;;;;;4.27;3.67;;;11.50;99.90;;;;;;5110789;28;20274;-68
2022/10/09 02:19:38;;;;;;;10.57;4.57;;;11.50;99.90;;;;;;5109925;28;20585;-69
2022/10/09 02:22:10;;;;;;;5.37;4.00;;;11.40;99.90;;;;;;5110182;28;20696;-67
2022/10/09 02:24:39;;;;;;;7.83;3.90;;;11.30;99.90;;;;;;5110011;28;20204;-67
2022/10/09 02:27:06;;;;;;;9.50;4.17;;;11.30;99.90;;;;;;5110421;28;20268;-69
2022/10/09 02:29:33;;;;;;;5.87;3.40;;;11.20;99.90;;;;;;5112808;28;20395;-69
2022/10/09 02:32:01;;;;;;;5.13;3.57;;;11.20;99.90;;;;;;5112391;28;20593;-68
2022/10/09 02:34:28;;;;;;;6.17;3.70;;;11.10;99.90;;;;;;5111627;28;20223;-68
2022/10/09 02:36:55;;;;;;;9.00;3.97;;;11.10;99.90;;;;;;5111265;28;20200;-69
2022/10/09 02:39:22;;;;;;;6.53;3.90;;;11.00;99.90;;;;;;5112047;28;20676;-68
2022/10/09 02:41:48;;;;;;;6.53;4.33;;;10.90;99.90;;;;;;5112132;28;20224;-69
2022/10/09 02:44:15;;;;;;;9.13;4.63;;;10.90;99.90;;;;;;5110088;28;20631;-68
2022/10/09 02:46:42;;;;;;;6.53;4.50;;;10.90;99.90;;;;;;5110929;28;20742;-68
2022/10/09 02:49:10;;;;;;;5.10;4.20;;;10.90;99.90;;;;;;5111061;28;20200;-68
2022/10/09 02:51:37;;;;;;;7.80;5.17;;;10.80;99.90;;;;;;5109368;28;20204;-67
2022/10/09 02:54:04;;;;;;;6.17;4.63;;;10.80;99.90;;;;;;5111394;28;20219;-68
2022/10/09 02:56:31;;;;;;;16.17;5.07;;;10.70;99.90;;;;;;5097346;28;20208;-68
2022/10/09 02:58:58;;;;;;;4.53;4.13;;;10.70;99.90;;;;;;5111387;28;20660;-67
2022/10/09 03:01:25;;;;;;;7.60;4.60;;;10.70;99.90;;;;;;5099832;28;20216;-69
2022/10/09 03:03:51;;;;;;;7.17;5.00;;;10.70;99.90;;;;;;5111087;28;20567;-68
2022/10/09 03:06:23;;;;;;;6.20;4.43;;;10.60;99.90;;;;;;5109534;28;20227;-67
2022/10/09 03:08:51;;;;;;;7.50;4.70;;;10.60;99.90;;;;;;5115028;28;20242;-67
2022/10/09 03:11:19;;;;;;;7.87;5.03;;;10.50;99.90;;;;;;5114406;28;20208;-68
2022/10/09 03:13:47;;;;;;;7.50;4.90;;;10.50;99.90;;;;;;5114824;28;20606;-68
2022/10/09 03:16:15;;;;;;;7.30;5.00;;;10.50;99.90;;;;;;5113949;28;20203;-68
2022/10/09 03:18:42;;;;;;;7.53;5.00;;;10.50;99.90;;;;;;5114422;28;20204;-68
2022/10/09 03:21:12;;;;;;;7.97;5.33;;;10.40;99.90;;;;;;5114300;28;20212;-68
2022/10/09 03:23:40;;;;;;;7.13;5.37;;;10.40;99.90;;;;;;5114090;28;20440;-68
2022/10/09 03:26:09;;;;;;;9.63;4.90;;;10.40;99.90;;;;;;5112052;28;20223;-68
2022/10/09 03:28:36;;;;;;;8.50;5.43;;;10.40;99.90;;;;;;5111996;28;20223;-66
2022/10/09 03:31:04;;;;;;;10.53;5.37;;;10.30;99.90;;;;;;5115125;28;20648;-68
2022/10/09 03:33:30;;;;;;;11.67;5.47;;;10.30;99.90;;;;;;5114726;28;20499;-67
2022/10/09 03:35:57;;;;;;;11.30;5.73;;;10.30;99.90;;;;;;5114402;28;20215;-68
2022/10/09 03:38:24;;;;;;;7.27;5.60;;;10.30;99.90;;;;;;5114262;28;20204;-68
2022/10/09 03:40:53;;;;;;;6.60;5.10;;;10.20;99.90;;;;;;5113145;28;20204;-68
2022/10/09 03:43:19;;;;;;;11.87;4.90;;;10.20;99.90;;;;;;5109628;28;20733;-68
2022/10/09 03:45:46;;;;;;;7.57;5.40;;;10.20;99.90;;;;;;5113753;28;20295;-68
2022/10/09 03:48:14;;;;;;;7.17;4.93;;;10.20;99.90;;;;;;5114087;28;20208;-68
2022/10/09 03:50:41;;;;;;;5.87;4.93;;;10.20;99.90;;;;;;5103395;28;20212;-68
2022/10/09 03:53:09;;;;;;;8.40;4.87;;;10.10;99.90;;;;;;5113940;28;20200;-67
2022/10/09 03:55:36;;;;;;;7.43;5.33;;;10.10;99.90;;;;;;5113646;28;20581;-67
2022/10/09 03:58:04;;;;;;;9.17;5.23;;;10.10;99.90;;;;;;5112851;28;20534;-69
2022/10/09 04:00:32;;;;;;;6.47;4.87;;;10.10;99.90;;;;;;5114155;28;20227;-67
2022/10/09 04:02:58;;;;;;;8.93;5.10;;;10.10;99.90;;;;;;5113370;28;20216;-68
2022/10/09 04:05:25;;;;;;;6.80;4.73;;;10.20;99.90;;;;;;5112199;28;20215;-68
2022/10/09 04:07:52;;;;;;;8.50;5.20;;;10.10;99.90;;;;;;5113415;28;20203;-67
2022/10/09 04:10:19;;;;;;;7.37;5.40;;;10.10;99.90;;;;;;5112973;28;20564;-67
2022/10/09 04:12:46;;;;;;;7.87;4.70;;;10.10;99.90;;;;;;5113451;28;20214;-67
2022/10/09 04:15:14;;;;;;;9.17;4.63;;;10.10;99.90;;;;;;5110417;28;20203;-67
2022/10/09 04:17:41;;;;;;;9.13;5.10;;;10.10;99.90;;;;;;5111272;28;20598;-67
2022/10/09 04:20:08;;;;;;;8.67;5.00;;;10.10;99.90;;;;;;5106922;28;20209;-67
2022/10/09 04:22:35;;;;;;;6.27;4.80;;;10.10;99.90;;;;;;5110426;28;20227;-68
2022/10/09 04:25:02;;;;;;;5.97;4.63;;;10.10;99.90;;;;;;5112162;28;20656;-67
2022/10/09 04:27:29;;;;;;;6.13;5.33;;;10.10;99.90;;;;;;5112160;28;20200;-67
2022/10/09 04:29:56;;;;;;;9.73;5.53;;;10.10;99.90;;;;;;5113790;28;20230;-67
2022/10/09 04:32:24;;;;;;;6.30;5.20;;;10.20;99.90;;;;;;5112688;28;20230;-67
2022/10/09 04:34:51;;;;;;;7.13;5.03;;;10.20;99.90;;;;;;5112806;28;20208;-67
2022/10/09 04:37:18;;;;;;;8.47;5.27;;;10.20;99.90;;;;;;5112473;28;20590;-67
2022/10/09 04:39:44;;;;;;;8.83;5.90;;;10.20;99.90;;;;;;5112728;28;20210;-68
2022/10/09 04:42:11;;;;;;;7.20;5.53;;;10.30;99.90;;;;;;5112939;28;20231;-67
2022/10/09 04:44:38;;;;;;;6.30;5.63;;;10.30;99.90;;;;;;5112577;28;20196;-68
2022/10/09 04:47:05;;;;;;;8.90;5.40;;;10.30;99.90;;;;;;5112464;28;20215;-67
2022/10/09 04:49:33;;;;;;;8.77;6.07;;;10.30;99.90;;;;;;5113515;28;20215;-68
2022/10/09 04:51:59;;;;;;;7.57;6.00;;;10.30;99.90;;;;;;5113160;28;20222;-68
2022/10/09 04:54:26;;;;;;;7.53;5.80;;;10.30;99.90;;;;;;5112588;28;20291;-68
2022/10/09 04:56:53;;;;;;;9.80;6.60;;;10.30;99.90;;;;;;5102245;28;20207;-68
2022/10/09 04:59:20;;;;;;;8.13;6.70;;;10.40;99.90;;;;;;5112901;28;20196;-69
2022/10/09 05:01:47;;;;;;;7.13;6.43;;;10.40;99.90;;;;;;5111938;28;20561;-69
2022/10/09 05:04:13;;;;;;;8.20;6.03;;;10.40;99.90;;;;;;5104231;28;20228;-69
2022/10/09 05:06:41;;;;;;;8.93;7.03;;;10.40;99.90;;;;;;5124203;27;20196;-68
2022/10/09 05:09:08;;;;;;;10.23;6.93;;;10.40;99.90;;;;;;5113566;28;20208;-68
2022/10/09 05:11:35;;;;;;;9.80;7.37;;;10.40;99.90;;;;;;5112396;28;20238;-67
2022/10/09 05:14:01;;;;;;;9.50;6.90;;;10.40;99.90;;;;;;5111802;28;20219;-67
2022/10/09 05:16:31;;;;;;;10.03;6.70;;;10.40;99.90;;;;;;5111249;28;20219;-68
2022/10/09 05:18:59;;;;;;;9.40;7.23;;;10.30;99.90;;;;;;5111998;28;20276;-69
2022/10/09 05:21:27;;;;;;;8.43;7.30;;;10.40;99.90;;;;;;5108658;28;20208;-68
2022/10/09 05:23:55;;;;;;;11.80;6.93;;;10.30;99.90;;;;;;5112863;28;20689;-68
2022/10/09 05:26:24;;;;;;;9.13;7.20;;;10.40;99.90;;;;;;5111819;28;20235;-67
2022/10/09 05:28:50;;;;;;;8.97;7.03;;;10.40;99.90;;;;;;5111103;28;20212;-68
2022/10/09 05:31:19;;;;;;;9.30;7.10;;;10.40;99.90;;;;;;5112394;28;20208;-68
2022/10/09 05:33:46;;;;;;;8.73;6.43;;;10.40;99.90;;;;;;5111398;28;20211;-67
2022/10/09 05:36:14;;;;;;;9.57;7.50;;;10.40;99.90;;;;;;5111543;28;20200;-69
2022/10/09 05:38:40;;;;;;;9.60;7.93;;;10.40;99.90;;;;;;5108866;28;20211;-68
2022/10/09 05:41:12;;;;;;;9.60;6.40;;;10.40;99.90;;;;;;5112907;28;20547;-69
2022/10/09 05:43:41;;;;;;;8.03;7.20;;;10.40;99.90;;;;;;5112899;28;20215;-68
2022/10/09 05:46:09;;;;;;;9.03;7.17;;;10.50;99.90;;;;;;5111084;28;20200;-69
2022/10/09 05:48:36;;;;;;;10.03;7.20;;;10.50;99.90;;;;;;5110598;28;20207;-70
2022/10/09 05:51:12;;;;;;;8.17;6.90;;;10.50;99.90;;;;;;5108051;28;20208;-69
2022/10/09 05:53:39;;;;;;;9.40;7.47;;;10.50;99.90;;;;;;5112783;28;20199;-69
2022/10/09 05:56:13;;;;;;;10.10;7.57;;;10.60;99.90;;;;;;5111158;28;20204;-69
2022/10/09 05:58:39;;;;;;;9.87;6.93;;;10.60;99.90;;;;;;5112729;28;20199;-74
2022/10/09 06:01:07;;;;;;;10.10;7.30;;;10.60;99.90;;;;;;5110300;28;20564;-73
2022/10/09 06:03:34;;;;;;;9.47;6.90;;;10.60;99.90;;;;;;5113590;28;20292;-72
2022/10/09 06:06:01;;;;;;;10.57;7.27;;;10.60;99.90;;;;;;5114298;28;20207;-72
2022/10/09 06:08:28;;;;;;;10.13;6.80;;;10.60;99.90;;;;;;5114685;28;20215;-73
2022/10/09 06:10:55;;;;;;;10.13;7.43;;;10.70;99.90;;;;;;5110313;28;20200;-74
2022/10/09 06:13:23;;;;;;;8.50;7.17;;;10.70;99.90;;;;;;5108313;28;20212;-74
2022/10/09 06:15:53;;;;;;;8.37;7.43;;;10.80;99.90;;;;;;5110802;28;20208;-73
2022/10/09 06:18:20;;;;;;;7.90;7.10;;;10.90;99.90;;;;;;5113419;28;20575;-73
2022/10/09 06:20:54;;;;;;;10.00;7.03;;;10.90;99.90;;;;;;5114398;28;20208;-74
2022/10/09 06:23:21;;;;;;;9.30;7.27;;;10.90;99.90;;;;;;5113291;28;20386;-72
2022/10/09 06:25:52;;;;;;;9.20;7.73;;;10.90;99.90;;;;;;5109756;28;20228;-73
2022/10/09 06:28:19;;;;;;;10.90;7.37;;;10.90;99.90;;;;;;5112700;28;20199;-73
2022/10/09 06:30:47;;;;;;;8.20;7.13;;;10.90;99.90;;;;;;5109976;28;20207;-73
2022/10/09 06:33:14;;;;;;;10.50;8.00;;;10.90;99.90;;;;;;5110117;28;20226;-72
2022/10/09 06:35:41;;;;;;;8.67;7.83;;;10.90;99.90;;;;;;5112349;28;20208;-71
2022/10/09 06:38:08;;;;;;;11.03;8.27;;;11.00;99.90;;;;;;5111639;28;20223;-72
2022/10/09 06:40:36;;;;;;;9.27;7.90;;;11.00;99.90;;;;;;5111063;28;20203;-69
2022/10/09 06:43:03;;;;;;;9.87;7.80;;;11.00;99.90;;;;;;5115871;28;20695;-68
2022/10/09 06:45:30;;;;;;;8.83;7.93;;;11.00;99.90;;;;;;5112774;28;20572;-69
2022/10/09 06:47:58;;;;;;;11.07;8.10;;;11.10;99.90;;;;;;5113251;28;20210;-67
2022/10/09 06:50:25;;;;;;;8.23;7.43;;;11.10;99.90;;;;;;5113226;28;20219;-67
2022/10/09 06:52:52;;;;;;;8.77;7.87;;;11.10;99.90;;;;;;5113529;28;20204;-66
2022/10/09 06:55:18;;;;;;;13.00;8.33;;;11.10;99.90;;;;;;5115167;28;20200;-69
2022/10/09 06:57:45;;;;;;;10.23;7.57;;;11.10;99.90;;;;;;5110016;28;20209;-70
2022/10/09 07:00:13;;;;;;;11.83;7.87;;;11.10;99.90;;;;;;5109417;28;20212;-69
2022/10/09 07:02:41;;;;;;;10.13;7.50;;;11.10;99.90;;;;;;5105584;28;20239;-68
2022/10/09 07:05:09;;;;;;;8.20;6.80;;;11.20;99.90;;;;;;5110393;28;20269;-68
2022/10/09 07:07:39;;;;;;;6.00;5.30;;;11.20;99.90;;;;;;5112369;28;20200;-68
2022/10/09 07:10:07;;;;;;;5.93;4.50;;;11.30;99.90;;;;;;5113240;28;20228;-67
2022/10/09 07:12:34;;;;;;;6.43;4.63;;;11.20;99.90;;;;;;5111693;28;20215;-67
2022/10/09 07:15:01;;;;;;;5.73;3.83;;;11.30;99.90;;;;;;5112249;28;20211;-67
2022/10/09 07:17:28;;;;;;;3.27;2.63;;;11.30;99.90;;;;;;5112745;28;20702;-67
2022/10/09 07:19:54;;;;;;;3.80;2.53;;;11.30;99.90;;;;;;5108837;28;20196;-69
2022/10/09 07:22:23;;;;;;;3.77;2.57;;;11.30;99.90;;;;;;5103913;28;20234;-71
2022/10/09 07:24:50;;;;;;;3.17;2.77;;;11.30;99.90;;;;;;5111702;28;20228;-69
2022/10/09 07:27:17;;;;;;;3.00;2.50;;;11.30;99.90;;;;;;5115068;28;20215;-73
2022/10/09 07:29:44;;;;;;;3.30;2.50;;;11.40;99.90;;;;;;5115321;28;20199;-66
2022/10/09 07:32:10;;;;;;;4.17;2.50;;;11.40;99.90;;;;;;5110882;28;20223;-71
2022/10/09 07:34:37;;;;;;;5.67;2.27;;;11.50;99.90;;;;;;5113522;28;20200;-71
2022/10/09 07:37:04;;;;;;;3.73;2.53;;;11.50;99.90;;;;;;5114216;28;20216;-69
2022/10/09 07:39:33;;;;;;;4.27;2.40;;;11.50;99.90;;;;;;5113987;28;20652;-72
2022/10/09 07:42:00;;;;;;;2.63;2.40;;;11.60;99.90;;;;;;5111928;28;20204;-71
2022/10/09 07:44:27;;;;;;;3.17;2.40;;;11.70;99.90;;;;;;5105407;28;20669;-70
2022/10/09 07:46:54;;;;;;;5.17;3.53;;;11.70;99.90;;;;;;5108705;28;20248;-71
2022/10/09 07:49:21;;;;;;;7.93;3.60;;;11.80;99.90;;;;;;5113587;27;20548;-72
2022/10/09 07:51:48;;;;;;;6.43;3.73;;;11.90;99.90;;;;;;5112960;27;20204;-71
2022/10/09 07:54:15;;;;;;;4.83;3.73;;;11.90;99.90;;;;;;5112644;28;20211;-72
2022/10/09 07:56:43;;;;;;;7.30;4.13;;;11.90;99.90;;;;;;5115108;28;20558;-76
2022/10/09 07:59:13;;;;;;;4.20;3.67;;;12.00;99.90;;;;;;5112260;28;20652;-70
2022/10/09 08:01:41;;;;;;;4.20;3.30;;;12.00;99.90;;;;;;5112423;28;20203;-72
2022/10/09 08:04:08;;;;;;;5.80;3.80;;;12.10;99.90;;;;;;5113486;28;20239;-69
2022/10/09 08:06:35;;;;;;;4.53;4.00;;;12.10;99.90;;;;;;5112364;28;20200;-69
2022/10/09 08:09:05;;;;;;;5.43;3.80;;;12.10;99.90;;;;;;5112115;28;20716;-68
2022/10/09 08:11:32;;;;;;;5.40;4.10;;;12.10;99.90;;;;;;5111600;28;20196;-69
2022/10/09 08:14:00;;;;;;;5.50;4.33;;;12.10;99.90;;;;;;5111856;28;20226;-71
2022/10/09 08:16:28;;;;;;;4.50;4.07;;;12.20;99.90;;;;;;5112810;28;20214;-69
2022/10/09 08:18:56;;;;;;;5.23;4.13;;;12.30;99.90;;;;;;5111562;28;20224;-69
2022/10/09 08:21:23;;;;;;;9.10;4.80;;;12.30;99.90;;;;;;5111424;28;20211;-69
2022/10/09 08:23:54;;;;;;;4.77;4.27;;;12.30;99.90;;;;;;5111845;28;20668;-72
2022/10/09 08:26:22;;;;;;;6.97;5.50;;;12.40;99.90;;;;;;5111082;28;20227;-70
2022/10/09 08:28:53;;;;;;;6.63;4.93;;;12.40;99.90;;;;;;5108478;28;20223;-70
2022/10/09 08:31:22;;;;;;;11.97;4.93;;;12.50;99.90;;;;;;5111216;28;20200;-71
2022/10/09 08:33:53;;;;;;;5.07;4.50;;;12.50;99.90;;;;;;5105649;28;20196;-69
2022/10/09 08:36:20;;;;;;;5.00;4.43;;;12.60;99.90;;;;;;5113029;28;20200;-71
2022/10/09 08:38:47;;;;;;;9.97;3.00;;;12.70;99.90;;;;;;5112003;28;20208;-71
2022/10/09 08:41:22;;;;;;;6.30;2.70;;;12.70;99.90;;;;;;5112438;28;20210;-71
2022/10/09 08:43:56;;;;;;;5.63;3.00;;;12.70;99.90;;;;;;5109689;28;20219;-69
2022/10/09 08:46:29;;;;;;;3.80;2.80;;;12.70;99.90;;;;;;5113251;28;20208;-70
2022/10/09 08:48:56;;;;;;;4.40;2.60;;;12.70;99.90;;;;;;5112792;28;20658;-71
2022/10/09 08:51:25;;;;;;;6.93;3.83;;;12.60;99.90;;;;;;5112038;28;20191;-71
2022/10/09 08:53:58;;;;;;;3.17;2.87;;;12.60;99.90;;;;;;5109826;28;20199;-71
2022/10/09 08:56:26;;;;;;;5.63;3.77;;;12.60;99.90;;;;;;5106820;28;21639;-71
2022/10/09 08:58:53;;;;;;;4.60;3.57;;;12.60;99.90;;;;;;5108874;28;20471;-70
2022/10/09 09:01:29;;;;;;;5.33;3.90;;;12.50;99.90;;;;;;5111364;28;20567;-69
2022/10/09 09:04:25;;;;;;;6.33;3.30;;;12.50;99.90;;;;;;5108376;28;20671;-70
2022/10/09 09:06:59;;;;;;;5.83;3.63;;;12.50;99.90;;;;;;5109823;28;20212;-69
2022/10/09 09:09:35;;;;;;;6.13;4.33;;;12.50;99.90;;;;;;5111201;28;20195;-70
2022/10/09 09:12:10;;;;;;;6.97;4.93;;;12.50;99.90;;;;;;5107418;28;20231;-73
2022/10/09 09:14:50;;;;;;;7.53;6.60;;;12.60;99.90;;;;;;5108542;28;20207;-71
2022/10/09 09:17:28;;;;;;;9.73;6.57;;;12.60;99.90;;;;;;5109018;28;20211;-72
2022/10/09 09:20:05;;;;;;;6.57;5.23;;;12.70;99.90;;;;;;5113380;28;20211;-71
2022/10/09 09:22:33;;;;;;;7.60;5.53;;;12.70;99.90;;;;;;5113661;28;20220;-73
2022/10/09 09:25:02;;;;;;;6.57;5.47;;;12.80;99.90;;;;;;5106717;28;20220;-71
2022/10/09 09:27:33;;;;;;;8.27;5.70;;;12.90;99.90;;;;;;5110425;28;20207;-68
2022/10/09 09:30:04;;;;;;;8.33;5.50;;;13.00;99.90;;;;;;5113214;28;20223;-71
2022/10/09 09:32:33;;;;;;;8.23;4.80;;;13.00;99.90;;;;;;5112373;28;20667;-71
2022/10/09 09:35:11;;;;;;;7.37;5.30;;;12.90;99.90;;;;;;5112416;28;20556;-71
2022/10/09 09:37:37;;;;;;;10.63;5.93;;;12.90;99.90;;;;;;5110150;28;20721;-73
2022/10/09 09:40:05;;;;;;;14.97;5.90;;;12.90;99.90;;;;;;5113899;28;20641;-72
2022/10/09 09:42:32;;;;;;;8.90;4.80;;;13.30;99.90;;;;;;5107988;28;20209;-73
2022/10/09 09:45:02;;;;;;;4.73;4.20;;;13.90;99.90;;;;;;5106622;28;20223;-72
2022/10/09 09:47:35;;;;;;;4.97;3.33;;;14.00;99.90;;;;;;5107740;28;20561;-70
2022/10/09 09:50:04;;;;;;;3.93;3.30;;;14.10;99.90;;;;;;5106441;28;20179;-71
2022/10/09 09:52:34;;;;;;;4.40;2.97;;;14.10;99.90;;;;;;5109630;28;20203;-71
2022/10/09 09:55:01;;;;;;;3.30;3.00;;;14.10;99.90;;;;;;5107932;28;20393;-70
2022/10/09 09:57:33;;;;;;;3.90;3.50;;;14.00;99.90;;;;;;5107775;28;20208;-71
2022/10/09 10:00:22;;;;;;;3.73;3.07;;;13.90;99.90;;;;;;5103887;28;20203;-69
2022/10/09 10:02:50;;;;;;;4.60;3.10;;;13.90;99.90;;;;;;5104278;28;20732;-69
2022/10/09 10:05:26;;;;;;;5.20;3.47;;;13.80;99.90;;;;;;5109726;28;20223;-67
2022/10/09 10:07:53;;;;;;;4.40;3.33;;;13.80;99.90;;;;;;5109494;28;20206;-69
2022/10/09 10:10:23;;;;;;;4.87;3.60;;;13.80;99.90;;;;;;5109838;28;20215;-72
2022/10/09 10:12:55;;;;;;;7.57;4.03;;;13.90;99.90;;;;;;5111298;28;20203;-70
2022/10/09 10:15:24;;;;;;;4.90;3.93;;;13.90;99.90;;;;;;5104294;28;20204;-71
2022/10/09 10:17:59;;;;;;;4.93;3.53;;;14.00;99.90;;;;;;5107375;28;20436;-70
2022/10/09 10:20:27;;;;;;;4.20;3.30;;;14.10;99.90;;;;;;5100883;28;20208;-69
2022/10/09 10:22:56;;;;;;;3.60;3.27;;;14.10;99.90;;;;;;5104549;28;20488;-69
2022/10/09 10:25:27;;;;;;;3.70;3.30;;;14.10;99.90;;;;;;5102655;28;20747;-69
2022/10/09 10:28:00;;;;;;;6.83;3.53;;;14.00;99.90;;;;;;5106777;28;20200;-69
2022/10/09 10:30:27;;;;;;;5.40;4.50;;;14.00;99.90;;;;;;5109184;28;20214;-70
2022/10/09 10:33:01;;;;;;;7.80;5.03;;;13.90;99.90;;;;;;5108022;28;20199;-69
2022/10/09 10:35:32;;;;;;;8.00;5.23;;;13.70;99.90;;;;;;5108158;28;20195;-69
2022/10/09 10:38:05;;;;;;;7.97;5.30;;;13.60;99.90;;;;;;5107124;28;20202;-68
2022/10/09 10:40:36;;;;;;;6.57;5.33;;;13.40;99.90;;;;;;5108935;28;20200;-69
2022/10/09 10:43:14;;;;;;;5.57;4.97;;;13.30;99.90;;;;;;5103581;28;20212;-69
2022/10/09 10:45:51;;;;;;;7.03;5.23;;;13.20;99.90;;;;;;5106128;28;20204;-68
2022/10/09 10:48:23;;;;;;;7.97;5.37;;;13.30;99.90;;;;;;5101186;28;20550;-70
2022/10/09 10:51:01;;;;;;;5.63;4.17;;;13.50;99.90;;;;;;5102294;28;20197;-71
2022/10/09 10:53:40;;;;;;;6.07;3.60;;;13.60;99.90;;;;;;5108650;28;20580;-71
2022/10/09 10:56:14;;;;;;;4.70;3.00;;;13.70;99.90;;;;;;5105905;28;20211;-68
2022/10/09 10:58:53;;;;;;;5.87;2.93;;;13.60;99.90;;;;;;5105037;28;20287;-68
2022/10/09 11:01:30;;;;;;;6.67;2.60;;;13.60;99.90;;;;;;5105893;28;20680;-69
2022/10/09 11:04:15;;;;;;;4.97;2.90;;;13.60;99.90;;;;;;5105066;28;20207;-70
2022/10/09 11:06:51;;;;;;;4.13;2.30;;;13.40;99.90;;;;;;5107868;28;20202;-69
2022/10/09 11:09:26;;;;;;;4.50;2.40;;;13.40;99.90;;;;;;5107782;28;20211;-70
2022/10/09 11:12:00;;;;;;;4.93;2.60;;;13.30;99.90;;;;;;5106527;28;20199;-70
2022/10/09 11:14:38;;;;;;;2.67;2.47;;;13.30;99.90;;;;;;5108329;28;20192;-70
2022/10/09 11:17:15;;;;;;;3.53;2.30;;;13.20;99.90;;;;;;5109856;28;20215;-70
2022/10/09 11:20:10;;;;;;;4.63;2.90;;;13.20;99.90;;;;;;5105129;28;20587;-70
2022/10/09 11:22:51;;;;;;;3.80;2.73;;;13.20;99.90;;;;;;5092480;28;20754;-71
2022/10/09 11:25:26;;;;;;;4.40;3.20;;;13.00;99.90;;;;;;5105784;28;20235;-70
2022/10/09 11:27:57;;;;;;;4.43;3.90;;;13.10;99.90;;;;;;5113386;28;20207;-72
2022/10/09 11:30:25;;;;;;;5.03;4.10;;;13.10;99.90;;;;;;5112903;28;20204;-71
2022/10/09 11:32:58;;;;;;;4.90;4.40;;;13.10;99.90;;;;;;5107541;28;20204;-70
2022/10/09 11:35:30;;;;;;;4.40;3.97;;;13.10;99.90;;;;;;5114313;28;20203;-71
2022/10/09 11:38:01;;;;;;;5.90;4.17;;;13.10;99.90;;;;;;5113318;28;20188;-70
2022/10/09 11:40:32;;;;;;;5.57;4.67;;;13.20;99.90;;;;;;5110658;28;20200;-67
2022/10/09 11:43:09;;;;;;;7.37;4.53;;;13.10;99.90;;;;;;5111659;28;20195;-67
2022/10/09 11:45:43;;;;;;;6.73;5.23;;;13.20;99.90;;;;;;5112174;28;20211;-67
2022/10/09 11:48:16;;;;;;;5.07;4.57;;;13.20;99.90;;;;;;5111460;28;20204;-67
2022/10/09 11:50:53;;;;;;;6.77;4.73;;;13.30;99.90;;;;;;5108860;28;20204;-68
2022/10/09 11:53:23;;;;;;;5.03;4.40;;;13.30;99.90;;;;;;5111429;28;20199;-66
2022/10/09 11:56:02;;;;;;;5.17;4.43;;;13.30;99.90;;;;;;5109689;28;20625;-65
2022/10/09 11:58:29;;;;;;;6.03;4.13;;;13.30;99.90;;;;;;5108853;28;20204;-69
2022/10/09 12:01:08;;;;;;;4.43;3.90;;;13.40;99.90;;;;;;5111085;28;20203;-68
2022/10/09 12:03:38;;;;;;;6.37;4.03;;;13.50;99.90;;;;;;5109907;28;20215;-72
2022/10/09 12:06:10;;;;;;;5.47;3.90;;;13.80;99.90;;;;;;5110995;28;20215;-67
2022/10/09 12:08:38;;;;;;;7.33;3.93;;;14.10;99.90;;;;;;5111661;28;20195;-66
2022/10/09 12:11:12;;;;;;;4.83;3.87;;;14.30;99.90;;;;;;5111313;28;20211;-67
2022/10/09 12:13:49;;;;;;;4.30;3.90;;;14.40;99.90;;;;;;5110695;28;20203;-66
2022/10/09 12:16:35;;;;;;;5.27;3.63;;;14.30;99.90;;;;;;5104539;28;20559;-66
2022/10/09 12:19:05;;;;;;;6.30;3.37;;;14.30;99.90;;;;;;5103991;28;20211;-68
2022/10/09 12:21:38;;;;;;;4.27;2.90;;;14.30;99.90;;;;;;5107466;28;20200;-66
2022/10/09 12:24:06;;;;;;;3.43;2.77;;;14.20;99.90;;;;;;5112426;28;20558;-68
2022/10/09 12:26:35;;;;;;;5.10;2.87;;;14.10;99.90;;;;;;5110488;28;20607;-68
2022/10/09 12:29:03;;;;;;;4.47;3.20;;;14.10;99.90;;;;;;5109076;28;20219;-71
2022/10/09 12:31:33;;;;;;;6.20;2.63;;;14.10;99.90;;;;;;5104635;28;20210;-71
2022/10/09 12:34:03;;;;;;;4.67;2.53;;;14.10;99.90;;;;;;5109838;28;20208;-71
2022/10/09 12:36:31;;;;;;;5.77;2.60;;;14.60;99.90;;;;;;5111501;28;20235;-71
2022/10/09 12:39:13;;;;;;;2.90;2.00;;;15.40;99.90;;;;;;5112007;28;20211;-69
2022/10/09 12:41:43;;;;;;;2.83;2.20;;;16.00;99.90;;;;;;5101387;28;20477;-71
2022/10/09 12:44:25;;;;;;;4.83;2.43;;;16.10;99.90;;;;;;5111943;28;20751;-71
2022/10/09 12:46:52;;;;;;;2.47;2.20;;;15.90;99.90;;;;;;5101802;28;20192;-71
2022/10/09 12:49:21;;;;;;;3.90;2.10;;;15.80;99.90;;;;;;5113202;28;20673;-73
2022/10/09 12:51:52;;;;;;;4.13;2.42;;;15.70;99.90;;;;;;5111473;28;20219;-72
2022/10/09 12:54:20;;;;;;;4.63;2.30;;;16.00;99.90;;;;;;5109713;28;20582;-73
2022/10/09 12:56:48;;;;;;;2.67;2.10;;;16.80;99.90;;;;;;5110918;28;20207;-72
2022/10/09 12:59:16;;;;;;;3.78;2.25;;;17.80;99.90;;;;;;5109330;28;20547;-73